Murray, NE

8:26 AM CDT on October 22, 2014 (GMT -0500)
Dixon's Landing at Beaver Lake | Change Station
CLOSE
Current Station
Personal Weather Station
Location: Murray, NE
Elevation: 1040 ft
Nearby Weather Stations

Elev 1040 ft 40.93 °N, 95.89 °W | Updated 2 seconds ago

Clear
Clear
53.6 °F
Feels Like 53.6 °F
N
0.0
Wind Variable Wind from SSE

Today
High -- | Low -- °F
--% Chance of Precip.
Yesterday
High -- | Low -- °F
Precip. -- in
7:42 AM 6:32 PM
Waning Crescent, 2% visible
Pressure 30.11 in
Visibility 10.0 miles
Clouds Clear
Dew Point 47 °F
Humidity 79%
Rainfall 0.00 in
Snow Depth Not available.
UV 0 out of 12
Pollen 2.70 out of 12
Air Quality Not available.
Flu Activity Sporadic
METAR KPMV 221315Z AUTO 14012G17KT 10SM CLR 12/06 A3011 RMK AO2 T01150060

More Conditions Fewer Conditions

Pressure 30.11 in
Visibility 10.0 miles
Clouds Clear
Dew Point 47 °F
Humidity 79%
Rainfall 0.00 in
Snow Depth Not available.
UV 0 out of 12
Pollen 2.70 out of 12
Air Quality Not available.
Flu Activity Sporadic
METAR KPMV 221315Z AUTO 14012G17KT 10SM CLR 12/06 A3011 RMK AO2 T01150060

More Conditions Fewer Conditions

10-Day Weather Forecast

Almanac

Astronomy

Oct. 22, 2014 Rise Set
Actual Time 7:42 AM CDT 6:32 PM CDT
Civil Twilight 7:14 AM CDT 7:00 PM CDT
Nautical Twilight 6:42 AM CDT 7:32 PM CDT
Astronomical Twilight 6:11 AM CDT 8:04 PM CDT
Moon 6:24 AM CDT 6:00 PM CDT
Length of Visible Light 11h 45m
Length of Day
10h 49m
Tomorrow will be 2m 33s shorter.
Waning Crescent, 2% of the Moon is Illuminated
Today
Waning Crescent
Oct 23
New
Oct 30
First Quarter
Nov 6
Full
Nov 14
Last Quarter

Today's Extremes

State Highs State Lows

Community

WunderPhotos

Upload Photos

1,763,917 photos uploaded!

Nearby

Snow Depth

Station Depth Elevation
No new snow has been reported.

Earthquake Activity

City Distance Mag. Time & Date
No recent earthquake activity has been reported nearby.
Minimum magnitude displayed is 2.5.

Coastal Water Temperatures

Place Temperature
No Stations Reporting

Nearby Weather Stations